Time;durP1;ratioP1;P1;durP2;ratioP2;P2;SDS_P1;SDS_P2;PMS_P1;PMS_P2;Temp;Humidity;BMP_temperature;BMP_pressure;BME280_temperature;BME280_humidity;BME280_pressure;Samples;Min_cycle;Max_cycle;Signal;HPM_P1;HPM_P2
2022/07/17 00:03:32;;;;;;;4.95;3.55;;;;;;;;;;8320810;28;20052;-79
2022/07/17 00:07:32;;;;;;;5.03;4.07;;;11.50;99.90;;;;;;8314101;28;20103;-79
2022/07/17 00:11:33;;;;;;;7.80;3.60;;;11.40;99.90;;;;;;8318370;28;20445;-79
2022/07/17 00:15:34;;;;;;;9.10;3.90;;;11.20;99.90;;;;;;8304300;28;20065;-79
2022/07/17 00:19:34;;;;;;;4.85;3.70;;;11.20;99.90;;;;;;8301447;28;20026;-79
2022/07/17 00:23:35;;;;;;;5.63;3.60;;;11.40;99.90;;;;;;8311321;28;20036;-79
2022/07/17 00:27:37;;;;;;;7.00;3.97;;;11.40;99.90;;;;;;8317464;28;20025;-79
2022/07/17 00:31:37;;;;;;;5.05;3.63;;;11.40;99.90;;;;;;8303577;28;20506;-79
2022/07/17 00:35:38;;;;;;;5.35;3.50;;;11.20;99.90;;;;;;8307811;28;20042;-79
2022/07/17 00:39:38;;;;;;;6.55;3.85;;;11.00;99.90;;;;;;8303563;28;20109;-79
2022/07/17 00:43:39;;;;;;;5.70;4.10;;;10.90;99.90;;;;;;8311522;28;20525;-79
2022/07/17 00:48:02;;;;;;;5.05;4.07;;;11.00;99.90;;;;;;8308270;28;20026;-79
2022/07/17 00:52:02;;;;;;;4.00;3.60;;;11.00;99.90;;;;;;8306859;28;20092;-79
2022/07/17 00:56:05;;;;;;;5.22;4.00;;;10.80;99.90;;;;;;8316973;28;20048;-79
2022/07/17 01:00:10;;;;;;;4.38;3.85;;;10.50;99.90;;;;;;8311592;28;20095;-79
2022/07/17 01:04:10;;;;;;;5.30;4.20;;;10.60;99.90;;;;;;8310492;28;20236;-79
2022/07/17 01:13:08;;;;;;;5.97;4.43;;;10.60;99.90;;;;;;8291248;28;20052;-79
2022/07/17 01:17:09;;;;;;;7.40;4.38;;;10.40;99.90;;;;;;8297110;28;20121;-78
2022/07/17 01:21:10;;;;;;;6.38;3.90;;;10.50;99.90;;;;;;8301075;28;20382;-79
2022/07/17 01:25:11;;;;;;;7.72;4.78;;;10.30;99.90;;;;;;8303266;28;20014;-78
2022/07/17 01:29:13;;;;;;;5.70;4.35;;;10.20;99.90;;;;;;8307311;28;20022;-79
2022/07/17 01:33:14;;;;;;;6.20;4.70;;;10.10;99.90;;;;;;8298805;28;20018;-79
2022/07/17 01:37:14;;;;;;;5.10;4.05;;;10.10;99.90;;;;;;8298762;28;20065;-79
2022/07/17 01:41:15;;;;;;;6.10;4.18;;;10.10;99.90;;;;;;8300150;28;20030;-79
2022/07/17 01:45:18;;;;;;;8.40;4.93;;;10.00;99.90;;;;;;8303487;28;20254;-78
2022/07/17 01:49:18;;;;;;;7.65;5.18;;;10.10;99.90;;;;;;8298182;28;20034;-79
2022/07/17 01:53:19;;;;;;;6.18;5.10;;;9.90;99.90;;;;;;8299502;28;20061;-79
2022/07/17 01:57:21;;;;;;;6.97;5.05;;;9.70;99.90;;;;;;8306910;28;20022;-78
2022/07/17 02:01:21;;;;;;;9.80;4.38;;;9.80;99.90;;;;;;8303618;28;20117;-78
2022/07/17 02:05:22;;;;;;;10.60;6.00;;;9.80;99.90;;;;;;8295479;28;20480;-79
2022/07/17 02:09:23;;;;;;;5.18;4.68;;;9.60;99.90;;;;;;8302463;28;20018;-77
2022/07/17 02:13:24;;;;;;;6.30;4.90;;;9.60;99.90;;;;;;8300566;28;20022;-78
2022/07/17 02:17:25;;;;;;;7.40;4.50;;;9.80;99.90;;;;;;8296425;28;20024;-79
2022/07/17 02:21:25;;;;;;;7.20;5.07;;;9.90;99.90;;;;;;8293806;28;20029;-78
2022/07/17 02:25:26;;;;;;;6.75;5.07;;;10.00;99.90;;;;;;8293842;28;20026;-79
2022/07/17 02:29:26;;;;;;;6.43;4.80;;;9.80;99.90;;;;;;8293641;28;20030;-78
2022/07/17 02:33:27;;;;;;;7.90;5.10;;;9.70;99.90;;;;;;8298251;28;20026;-79
2022/07/17 02:37:27;;;;;;;5.65;4.93;;;9.60;99.90;;;;;;8294931;28;20385;-79
2022/07/17 02:41:28;;;;;;;5.68;4.38;;;9.40;99.90;;;;;;8295471;28;20033;-79
2022/07/17 02:45:28;;;;;;;8.75;5.25;;;9.40;99.90;;;;;;8295885;28;20026;-78
2022/07/17 02:49:29;;;;;;;8.20;5.38;;;9.70;99.90;;;;;;8301577;28;20026;-79
2022/07/17 02:53:29;;;;;;;7.70;5.18;;;9.60;99.90;;;;;;8316326;28;20025;-79
2022/07/17 02:57:30;;;;;;;6.85;5.32;;;9.40;99.90;;;;;;8302750;28;20494;-78
2022/07/17 03:01:30;;;;;;;7.97;5.28;;;9.30;99.90;;;;;;8300348;28;20022;-79
2022/07/17 03:05:31;;;;;;;8.75;5.20;;;9.40;99.90;;;;;;8308636;28;20535;-79
2022/07/17 03:09:32;;;;;;;5.38;4.80;;;9.80;99.90;;;;;;8298374;28;20026;-79
2022/07/17 03:13:32;;;;;;;5.88;5.05;;;9.90;99.90;;;;;;8305579;28;20030;-79
2022/07/17 03:17:33;;;;;;;7.32;4.88;;;9.60;99.90;;;;;;8302796;28;20026;-79
2022/07/17 03:21:33;;;;;;;6.55;5.22;;;9.30;99.90;;;;;;8298157;28;20452;-78
2022/07/17 03:25:34;;;;;;;6.10;5.03;;;9.10;99.90;;;;;;8318973;28;20083;-78
2022/07/17 03:29:34;;;;;;;6.22;4.88;;;8.90;99.90;;;;;;8321482;28;20033;-78
2022/07/17 03:33:35;;;;;;;7.57;5.70;;;8.90;99.90;;;;;;8323937;28;20390;-78
2022/07/17 03:37:37;;;;;;;9.57;5.60;;;8.70;99.90;;;;;;8328789;28;20087;-77
2022/07/17 03:41:37;;;;;;;8.43;5.50;;;8.70;99.90;;;;;;8327264;28;20021;-77
2022/07/17 03:45:38;;;;;;;7.10;5.93;;;8.70;99.90;;;;;;8308135;28;20087;-77
2022/07/17 03:49:38;;;;;;;11.50;5.68;;;8.80;99.90;;;;;;8308339;28;20064;-77
2022/07/17 03:53:39;;;;;;;11.55;5.65;;;8.90;99.90;;;;;;8308386;28;20088;-77
2022/07/17 03:57:39;;;;;;;9.18;5.68;;;8.90;99.90;;;;;;8312106;28;20021;-77
2022/07/17 04:01:40;;;;;;;8.88;5.05;;;9.00;99.90;;;;;;8315693;28;20036;-77
2022/07/17 04:05:41;;;;;;;6.45;5.57;;;9.30;99.90;;;;;;8322229;28;20025;-78
2022/07/17 04:09:41;;;;;;;5.55;4.95;;;10.00;99.90;;;;;;8322159;28;20489;-78
2022/07/17 04:13:42;;;;;;;6.57;4.88;;;10.70;99.90;;;;;;8321954;28;20033;-77
2022/07/17 04:17:42;;;;;;;6.75;4.80;;;11.20;99.90;;;;;;8321218;28;20072;-77
2022/07/17 04:21:43;;;;;;;6.85;4.65;;;11.70;99.90;;;;;;8321693;28;20079;-79
2022/07/17 04:25:44;;;;;;;8.43;4.30;;;12.20;99.90;;;;;;8319834;28;20026;-77
2022/07/17 04:29:44;;;;;;;5.32;4.07;;;12.80;99.90;;;;;;8318727;28;20033;-85
2022/07/17 04:33:45;;;;;;;4.57;3.75;;;13.40;99.90;;;;;;8310661;28;20459;-84
2022/07/17 04:37:45;;;;;;;4.97;3.80;;;13.90;99.90;;;;;;8332841;28;20032;-85
2022/07/17 04:41:46;;;;;;;4.60;3.70;;;14.10;99.90;;;;;;8307652;28;20037;-85
2022/07/17 04:45:47;;;;;;;4.85;3.75;;;13.90;99.90;;;;;;8311826;28;20032;-85
2022/07/17 04:49:47;;;;;;;9.07;3.83;;;14.00;99.90;;;;;;8310696;28;20026;-85
2022/07/17 04:53:48;;;;;;;4.43;3.25;;;14.20;99.90;;;;;;8309264;28;20577;-78
2022/07/17 04:57:48;;;;;;;4.00;3.42;;;15.00;99.90;;;;;;8300403;28;20038;-77
2022/07/17 05:01:49;;;;;;;4.97;3.33;;;15.80;99.90;;;;;;8299808;28;20064;-77
2022/07/17 05:05:49;;;;;;;6.13;3.22;;;16.30;99.90;;;;;;8319935;28;20035;-78
2022/07/17 05:09:50;;;;;;;5.68;3.60;;;16.30;99.90;;;;;;8318068;28;20056;-78
2022/07/17 05:13:50;;;;;;;4.65;3.47;;;16.80;99.90;;;;;;8316318;28;20037;-77
2022/07/17 05:17:51;;;;;;;6.43;3.35;;;16.90;99.90;;;;;;8319133;28;20021;-78
2022/07/17 05:21:51;;;;;;;6.07;3.40;;;17.40;99.90;;;;;;8320282;28;20029;-78
2022/07/17 05:25:52;;;;;;;6.10;3.70;;;17.70;99.90;;;;;;8320936;28;20017;-78
2022/07/17 05:29:52;;;;;;;4.88;3.42;;;18.00;99.90;;;;;;8318043;28;20064;-77
2022/07/17 05:33:53;;;;;;;4.03;3.63;;;18.60;99.90;;;;;;8312710;28;20103;-78
2022/07/17 05:37:53;;;;;;;5.10;3.50;;;18.70;99.90;;;;;;8319796;28;20060;-78
2022/07/17 05:41:54;;;;;;;7.93;3.40;;;18.80;99.90;;;;;;8314285;28;20022;-79
2022/07/17 05:45:55;;;;;;;4.43;3.72;;;19.70;99.90;;;;;;8308289;28;20117;-78
2022/07/17 05:49:56;;;;;;;8.38;4.38;;;20.40;99.90;;;;;;8307057;28;20048;-78
2022/07/17 05:53:57;;;;;;;5.55;3.90;;;20.60;99.90;;;;;;8301913;28;20042;-78
2022/07/17 05:57:57;;;;;;;4.95;3.20;;;20.60;99.90;;;;;;8290901;28;20040;-78
2022/07/17 06:01:58;;;;;;;5.93;3.50;;;21.40;99.90;;;;;;8304347;28;20040;-78
2022/07/17 06:05:58;;;;;;;4.95;3.55;;;21.60;99.90;;;;;;8284742;28;20022;-78
2022/07/17 06:09:59;;;;;;;5.75;3.50;;;21.70;99.90;;;;;;8310560;28;20469;-78
2022/07/17 06:14:00;;;;;;;3.95;3.10;;;22.60;99.90;;;;;;8306345;28;20021;-78
2022/07/17 06:18:04;;;;;;;5.75;3.13;;;23.10;99.90;;;;;;8303981;28;20161;-78
2022/07/17 06:22:04;;;;;;;6.40;3.47;;;23.50;99.90;;;;;;8304186;28;20057;-78
2022/07/17 06:26:05;;;;;;;4.05;2.90;;;23.70;98.30;;;;;;8305670;28;20041;-79
2022/07/17 06:30:08;;;;;;;7.53;3.58;;;23.90;97.90;;;;;;8315305;28;20405;-78
2022/07/17 06:34:08;;;;;;;4.97;2.80;;;24.00;96.90;;;;;;8308177;28;20080;-79
2022/07/17 06:38:10;;;;;;;4.28;2.70;;;24.60;94.50;;;;;;8295130;28;20022;-79
2022/07/17 06:42:11;;;;;;;3.03;2.72;;;24.50;92.90;;;;;;8293183;28;20096;-79
2022/07/17 06:46:11;;;;;;;4.57;2.75;;;24.70;93.20;;;;;;8296487;28;20052;-77
2022/07/17 06:50:12;;;;;;;4.65;2.70;;;25.10;93.80;;;;;;8294893;28;20091;-79
2022/07/17 06:54:13;;;;;;;3.47;2.53;;;25.20;93.10;;;;;;8293135;28;20053;-79
2022/07/17 06:58:13;;;;;;;4.00;2.63;;;25.20;91.70;;;;;;8303734;28;20032;-78
2022/07/17 07:02:14;;;;;;;3.38;2.45;;;25.40;92.10;;;;;;8311057;28;20387;-78
2022/07/17 07:06:14;;;;;;;3.35;2.33;;;25.70;90.10;;;;;;8306969;28;20041;-79
2022/07/17 07:10:16;;;;;;;3.42;2.45;;;26.30;83.10;;;;;;8304590;28;20451;-80
2022/07/17 07:14:17;;;;;;;5.97;2.60;;;26.30;81.00;;;;;;8297687;28;20026;-79
2022/07/17 07:18:18;;;;;;;2.80;2.28;;;26.70;80.10;;;;;;8298422;28;20588;-80
2022/07/17 07:22:18;;;;;;;4.45;2.20;;;27.50;77.30;;;;;;8298601;28;20604;-79
2022/07/17 07:26:19;;;;;;;3.13;2.17;;;27.70;78.70;;;;;;8303985;28;20108;-80
2022/07/17 07:30:19;;;;;;;5.05;2.00;;;27.80;72.50;;;;;;8297515;28;20429;-80
2022/07/17 07:34:20;;;;;;;7.72;2.40;;;27.20;73.50;;;;;;8298679;28;20037;-78
2022/07/17 07:38:20;;;;;;;3.85;1.90;;;26.30;74.50;;;;;;8320578;28;20018;-78
2022/07/17 07:42:21;;;;;;;4.55;2.30;;;25.90;78.50;;;;;;8318291;28;20370;-79
2022/07/17 07:46:21;;;;;;;3.50;2.10;;;25.90;75.10;;;;;;8310952;28;20036;-79
2022/07/17 07:50:23;;;;;;;4.47;2.20;;;25.60;74.70;;;;;;8300588;28;20021;-77
2022/07/17 07:54:24;;;;;;;3.60;2.50;;;25.70;77.10;;;;;;8306896;28;20032;-79
2022/07/17 07:58:25;;;;;;;2.65;2.08;;;26.10;72.90;;;;;;8299308;28;20025;-79
2022/07/17 08:02:25;;;;;;;4.30;2.33;;;26.70;73.30;;;;;;8299419;28;20037;-78
2022/07/17 08:06:26;;;;;;;3.20;2.15;;;26.90;73.20;;;;;;8296581;28;20486;-80
2022/07/17 08:10:27;;;;;;;3.42;2.08;;;27.00;71.80;;;;;;8306200;28;20022;-79
2022/07/17 08:14:28;;;;;;;2.78;1.95;;;27.60;73.10;;;;;;8313949;28;20065;-80
2022/07/17 08:18:28;;;;;;;2.67;2.00;;;28.10;64.30;;;;;;8302538;28;20036;-80
2022/07/17 08:22:29;;;;;;;5.32;2.10;;;27.70;65.60;;;;;;8309025;28;20037;-79
2022/07/17 08:26:29;;;;;;;3.92;2.53;;;27.70;71.80;;;;;;8319595;28;20041;-79
2022/07/17 08:30:34;;;;;;;2.78;1.88;;;27.60;66.10;;;;;;8320330;28;20180;-78
2022/07/17 08:34:35;;;;;;;3.08;2.17;;;27.00;68.30;;;;;;8322899;28;20040;-79
2022/07/17 08:38:35;;;;;;;6.90;2.38;;;26.70;73.20;;;;;;8309913;28;20120;-78
2022/07/17 08:42:42;;;;;;;3.80;2.25;;;26.40;71.20;;;;;;8320029;28;20013;-78
2022/07/17 08:46:43;;;;;;;3.45;2.17;;;26.00;72.40;;;;;;8319151;28;20495;-77
2022/07/17 08:50:45;;;;;;;5.20;2.13;;;26.30;70.40;;;;;;8298995;28;20029;-79
2022/07/17 08:54:46;;;;;;;5.28;2.00;;;26.60;70.40;;;;;;8297746;28;20034;-77
2022/07/17 08:58:47;;;;;;;3.75;2.33;;;26.80;65.20;;;;;;8298652;28;20073;-78
2022/07/17 09:03:06;;;;;;;4.57;2.25;;;26.70;65.90;;;;;;8319313;28;20029;-79
2022/07/17 09:07:07;;;;;;;5.72;2.17;;;26.50;65.00;;;;;;8311818;28;20030;-78
2022/07/17 09:11:08;;;;;;;3.42;2.13;;;26.70;69.30;;;;;;8324701;28;20060;-78
2022/07/17 09:15:18;;;;;;;4.28;2.38;;;27.10;65.20;;;;;;8322008;28;20018;-79
2022/07/17 09:19:30;;;;;;;5.90;2.15;;;27.00;66.70;;;;;;8308154;28;20107;-78
2022/07/17 09:23:30;;;;;;;3.05;2.00;;;26.60;63.80;;;;;;8304359;28;20014;-80
2022/07/17 09:27:33;;;;;;;4.32;2.45;;;26.80;69.10;;;;;;8314814;28;20386;-79
2022/07/17 09:31:33;;;;;;;3.72;2.20;;;27.30;64.40;;;;;;8304291;28;20116;-78
2022/07/17 09:35:34;;;;;;;2.38;2.10;;;27.40;67.80;;;;;;8319400;28;20045;-79
2022/07/17 09:39:38;;;;;;;4.43;2.10;;;26.80;66.30;;;;;;8306945;28;20029;-80
2022/07/17 09:43:40;;;;;;;2.75;2.10;;;26.90;68.00;;;;;;8300788;28;20026;-79
2022/07/17 09:47:40;;;;;;;3.78;2.20;;;26.90;65.20;;;;;;8292658;28;20156;-81
2022/07/17 09:51:41;;;;;;;3.50;2.50;;;27.40;65.50;;;;;;8305738;28;20029;-81
2022/07/17 09:55:43;;;;;;;5.53;3.08;;;28.20;63.60;;;;;;8313965;28;20029;-81
2022/07/17 09:59:45;;;;;;;3.70;3.15;;;28.30;61.00;;;;;;8313448;28;20033;-80
2022/07/17 10:03:48;;;;;;;2.80;2.03;;;27.60;65.20;;;;;;8307593;28;20052;-80
2022/07/17 10:07:49;;;;;;;3.03;2.30;;;27.70;60.20;;;;;;8306308;28;20141;-82
2022/07/17 10:11:50;;;;;;;5.35;3.83;;;28.00;66.90;;;;;;8306240;28;20038;-81
2022/07/17 10:15:51;;;;;;;2.50;2.03;;;28.60;60.30;;;;;;8303970;28;20533;-81
2022/07/17 10:19:56;;;;;;;3.33;2.13;;;28.00;62.30;;;;;;8321533;28;20026;-81
2022/07/17 10:23:56;;;;;;;3.63;2.30;;;27.40;60.80;;;;;;8318442;28;20032;-80
2022/07/17 10:27:57;;;;;;;3.47;2.40;;;27.00;63.70;;;;;;8303409;28;20021;-80
2022/07/17 10:31:59;;;;;;;4.25;2.10;;;27.30;63.50;;;;;;8307611;28;20026;-80
2022/07/17 10:36:00;;;;;;;6.85;2.45;;;27.70;63.00;;;;;;8300001;28;20036;-81
2022/07/17 10:40:07;;;;;;;5.60;2.20;;;28.20;58.90;;;;;;8287837;28;20038;-81
2022/07/17 10:44:07;;;;;;;2.70;1.98;;;28.20;59.40;;;;;;8292822;28;20018;-82
2022/07/17 10:48:19;;;;;;;2.22;1.90;;;29.00;61.40;;;;;;8295915;28;20030;-81
2022/07/17 10:52:19;;;;;;;3.20;2.03;;;29.70;54.30;;;;;;8275163;28;20030;-81
2022/07/17 10:56:20;;;;;;;3.35;1.80;;;29.80;53.40;;;;;;8290057;28;20449;-80
2022/07/17 11:00:21;;;;;;;2.78;2.00;;;29.80;54.90;;;;;;8294261;28;20061;-79
2022/07/17 11:04:22;;;;;;;3.00;2.17;;;28.80;58.80;;;;;;8309698;28;20038;-80
2022/07/17 11:08:22;;;;;;;3.85;2.08;;;29.10;52.90;;;;;;8317951;28;20030;-79
2022/07/17 11:12:35;;;;;;;2.92;2.30;;;29.30;56.60;;;;;;8318149;28;20030;-81
2022/07/17 11:16:36;;;;;;;3.35;2.33;;;29.00;54.10;;;;;;8316537;28;20025;-81
2022/07/17 11:20:50;;;;;;;3.25;1.98;;;30.30;52.40;;;;;;8314690;28;20038;-81
2022/07/17 11:24:51;;;;;;;3.88;2.15;;;30.50;56.00;;;;;;8305576;28;20030;-80
2022/07/17 11:28:54;;;;;;;2.00;1.80;;;30.50;56.00;;;;;;8318696;28;20025;-79
2022/07/17 11:32:55;;;;;;;2.65;2.00;;;30.30;55.10;;;;;;8308872;28;20029;-84
2022/07/17 11:37:04;;;;;;;2.85;2.17;;;29.90;52.10;;;;;;8318874;28;20032;-81
2022/07/17 11:41:05;;;;;;;3.30;1.98;;;31.60;50.10;;;;;;8314796;28;20076;-80
2022/07/17 11:45:07;;;;;;;2.65;1.80;;;31.90;49.90;;;;;;8318990;28;20029;-79
2022/07/17 11:49:08;;;;;;;2.42;1.90;;;31.60;46.80;;;;;;8312662;28;20521;-78
2022/07/17 11:53:09;;;;;;;4.13;1.75;;;31.80;48.50;;;;;;8319033;28;20021;-80
2022/07/17 11:57:09;;;;;;;5.82;2.28;;;32.40;46.60;;;;;;8322413;28;20076;-79
2022/07/17 12:01:10;;;;;;;1.77;1.60;;;33.10;44.30;;;;;;8309886;28;20025;-78
2022/07/17 12:05:12;;;;;;;2.17;1.65;;;33.30;46.00;;;;;;8301388;28;20633;-81
2022/07/17 12:09:13;;;;;;;3.58;1.75;;;33.40;43.70;;;;;;8308336;28;20381;-80
2022/07/17 12:13:16;;;;;;;2.50;1.70;;;32.40;45.50;;;;;;8317431;28;20075;-79
2022/07/17 12:17:17;;;;;;;2.85;1.60;;;32.20;47.00;;;;;;8304711;28;20026;-80
2022/07/17 12:21:18;;;;;;;4.88;2.00;;;32.80;42.80;;;;;;8305411;28;20548;-80
2022/07/17 12:25:26;;;;;;;2.22;1.80;;;32.70;45.30;;;;;;8306033;28;20396;-80
2022/07/17 12:29:28;;;;;;;2.00;1.67;;;33.00;47.20;;;;;;8309754;28;20505;-79
2022/07/17 12:33:29;;;;;;;2.08;1.80;;;33.70;39.50;;;;;;8308453;28;20033;-79
2022/07/17 12:37:30;;;;;;;3.42;1.70;;;34.30;40.20;;;;;;8309573;28;20034;-79
2022/07/17 12:41:31;;;;;;;2.30;1.70;;;33.10;42.10;;;;;;8308901;28;20022;-78
2022/07/17 12:45:31;;;;;;;4.68;1.60;;;34.60;42.40;;;;;;8307008;28;20029;-79
2022/07/17 12:49:32;;;;;;;3.55;1.70;;;33.50;44.00;;;;;;8306474;28;20029;-80
2022/07/17 12:53:35;;;;;;;3.03;2.00;;;34.70;38.10;;;;;;8303284;28;20033;-78
2022/07/17 12:57:35;;;;;;;1.80;1.65;;;34.80;41.20;;;;;;8320277;28;20379;-79
2022/07/17 13:01:36;;;;;;;1.60;1.50;;;33.00;40.80;;;;;;8310327;28;20033;-79
2022/07/17 13:05:36;;;;;;;4.53;1.80;;;32.20;42.10;;;;;;8310544;28;20048;-80
2022/07/17 13:09:37;;;;;;;2.20;1.60;;;34.10;41.10;;;;;;8305700;28;20030;-79
2022/07/17 13:13:37;;;;;;;1.60;1.50;;;35.20;38.00;;;;;;8299634;28;20048;-80
2022/07/17 13:17:38;;;;;;;2.40;1.58;;;37.20;35.00;;;;;;8306454;28;20037;-81
2022/07/17 13:21:39;;;;;;;3.33;1.80;;;38.00;34.40;;;;;;8305500;28;20517;-80
2022/07/17 13:25:39;;;;;;;3.42;1.75;;;37.80;33.80;;;;;;8319886;28;20489;-80
2022/07/17 13:29:40;;;;;;;3.88;1.80;;;38.00;34.90;;;;;;8306975;28;20395;-81
2022/07/17 13:33:41;;;;;;;1.90;1.75;;;36.70;35.90;;;;;;8315597;28;20072;-80
2022/07/17 13:37:42;;;;;;;2.75;1.63;;;36.50;37.50;;;;;;8313972;28;20037;-78
2022/07/17 13:41:42;;;;;;;1.75;1.60;;;35.30;39.40;;;;;;8300382;28;20056;-82
2022/07/17 13:45:43;;;;;;;4.93;2.00;;;36.20;37.20;;;;;;8295801;28;20025;-79
2022/07/17 13:49:44;;;;;;;3.75;1.65;;;35.70;38.70;;;;;;8298487;28;20029;-80
2022/07/17 13:53:44;;;;;;;2.25;1.70;;;35.40;38.90;;;;;;8308759;28;20026;-79
2022/07/17 13:57:45;;;;;;;5.75;1.98;;;34.30;37.90;;;;;;8301610;28;20041;-80
2022/07/17 14:01:46;;;;;;;1.77;1.50;;;34.70;37.20;;;;;;8292533;28;20044;-80
2022/07/17 14:05:46;;;;;;;1.85;1.60;;;34.60;37.80;;;;;;8293086;28;20064;-80
2022/07/17 14:09:47;;;;;;;2.25;1.77;;;34.60;39.30;;;;;;8292299;28;20033;-79
2022/07/17 14:13:47;;;;;;;3.90;1.75;;;34.80;38.60;;;;;;8293961;28;20014;-78
2022/07/17 14:17:48;;;;;;;2.40;1.50;;;35.40;36.90;;;;;;8293593;28;20505;-79
2022/07/17 14:21:49;;;;;;;2.22;1.80;;;35.40;39.10;;;;;;8296638;28;20162;-80
2022/07/17 14:25:49;;;;;;;3.10;1.75;;;35.60;37.00;;;;;;8295712;28;20397;-79
2022/07/17 14:29:50;;;;;;;3.22;1.73;;;35.00;37.40;;;;;;8296227;28;20041;-78
2022/07/17 14:33:51;;;;;;;2.33;1.80;;;35.10;34.50;;;;;;8297091;28;20099;-78
2022/07/17 14:37:51;;;;;;;2.38;2.13;;;34.30;36.60;;;;;;8292893;28;20096;-80
2022/07/17 14:42:02;;;;;;;2.05;1.60;;;35.50;34.60;;;;;;8303155;28;20370;-79
2022/07/17 14:46:03;;;;;;;2.40;1.50;;;35.70;35.50;;;;;;8297782;28;20033;-80
2022/07/17 14:50:04;;;;;;;3.33;1.70;;;36.40;37.30;;;;;;8308632;28;20033;-80
2022/07/17 14:54:04;;;;;;;1.92;1.63;;;34.30;36.60;;;;;;8302237;28;20037;-79
2022/07/17 14:58:05;;;;;;;2.08;1.70;;;35.30;36.10;;;;;;8308671;28;20034;-79
2022/07/17 15:02:06;;;;;;;1.88;1.48;;;34.50;35.40;;;;;;8309343;28;20112;-80
2022/07/17 15:06:07;;;;;;;3.75;1.65;;;35.80;36.30;;;;;;8303317;28;20064;-79
2022/07/17 15:10:07;;;;;;;2.88;1.60;;;35.80;35.20;;;;;;8305178;28;20030;-79
2022/07/17 15:14:08;;;;;;;4.68;1.88;;;35.30;36.70;;;;;;8306008;28;20034;-81
2022/07/17 15:18:08;;;;;;;3.88;1.60;;;36.40;35.40;;;;;;8317767;28;20061;-78
2022/07/17 15:22:09;;;;;;;2.13;1.85;;;36.30;35.70;;;;;;8300189;28;20033;-80
2022/07/17 15:26:10;;;;;;;3.90;1.60;;;36.50;32.40;;;;;;8309157;28;20040;-79
2022/07/17 15:30:10;;;;;;;2.60;1.70;;;37.10;33.90;;;;;;8303818;28;20026;-80
2022/07/17 15:34:11;;;;;;;1.83;1.58;;;36.60;34.40;;;;;;8313514;28;20038;-78
2022/07/17 15:38:12;;;;;;;2.10;1.50;;;35.10;37.00;;;;;;8306619;28;20490;-81
2022/07/17 15:42:12;;;;;;;3.90;1.73;;;34.70;36.20;;;;;;8312614;28;20014;-81
2022/07/17 15:46:13;;;;;;;3.97;1.63;;;33.90;39.40;;;;;;8309467;28;20052;-81
2022/07/17 15:50:13;;;;;;;2.97;1.90;;;31.40;39.50;;;;;;8308681;28;20021;-81
2022/07/17 15:54:15;;;;;;;2.03;1.73;;;29.50;44.00;;;;;;8311172;28;20105;-81
2022/07/17 15:58:16;;;;;;;3.05;1.90;;;28.70;42.60;;;;;;8298901;28;20080;-80
2022/07/17 16:02:16;;;;;;;2.08;1.63;;;28.20;46.60;;;;;;8307060;28;20415;-80
2022/07/17 16:06:17;;;;;;;3.17;1.50;;;27.60;47.30;;;;;;8315701;28;20026;-81
2022/07/17 16:10:17;;;;;;;2.20;1.55;;;27.40;51.50;;;;;;8301683;28;20017;-81
2022/07/17 16:14:18;;;;;;;3.00;1.88;;;27.20;49.60;;;;;;8303700;28;20116;-81
2022/07/17 16:18:18;;;;;;;2.92;1.70;;;27.10;49.00;;;;;;8306452;28;20017;-81
2022/07/17 16:22:19;;;;;;;2.40;1.55;;;26.90;48.60;;;;;;8302287;28;21194;-80
2022/07/17 16:26:19;;;;;;;2.17;1.95;;;26.90;48.80;;;;;;8316925;28;20524;-81
2022/07/17 16:30:20;;;;;;;2.72;1.60;;;26.80;49.80;;;;;;8314902;28;20029;-81
2022/07/17 16:34:20;;;;;;;5.47;2.15;;;27.50;49.70;;;;;;8317715;28;20033;-80
2022/07/17 16:38:21;;;;;;;4.70;1.65;;;27.70;46.90;;;;;;8320339;28;20422;-80
2022/07/17 16:42:21;;;;;;;2.40;1.63;;;28.00;48.70;;;;;;8312933;28;20026;-82
2022/07/17 16:46:22;;;;;;;3.45;1.90;;;27.90;48.40;;;;;;8303617;28;20045;-82
2022/07/17 16:50:23;;;;;;;1.98;1.77;;;27.50;48.80;;;;;;8309368;28;20025;-81
2022/07/17 16:54:23;;;;;;;4.13;1.58;;;27.10;49.30;;;;;;8304787;28;20548;-81
2022/07/17 16:58:24;;;;;;;1.95;1.70;;;26.70;50.90;;;;;;8296071;28;20034;-81
2022/07/17 17:02:24;;;;;;;3.70;1.70;;;26.60;50.50;;;;;;8304569;28;20029;-81
2022/07/17 17:06:25;;;;;;;2.30;1.60;;;26.20;52.30;;;;;;8297163;28;20022;-81
2022/07/17 17:10:26;;;;;;;3.47;2.10;;;25.80;50.30;;;;;;8295830;28;20052;-81
2022/07/17 17:14:27;;;;;;;2.10;1.70;;;25.50;50.90;;;;;;8301062;28;20028;-82
2022/07/17 17:18:27;;;;;;;1.98;1.58;;;25.40;52.50;;;;;;8284527;28;20569;-81
2022/07/17 17:22:28;;;;;;;2.35;1.83;;;25.10;52.90;;;;;;8292788;28;20521;-81
2022/07/17 17:26:29;;;;;;;2.95;1.55;;;25.00;54.30;;;;;;8300174;28;20492;-82
2022/07/17 17:30:29;;;;;;;4.03;1.75;;;24.80;54.50;;;;;;8310718;28;20059;-81
2022/07/17 17:34:30;;;;;;;2.90;2.00;;;24.70;55.70;;;;;;8316617;28;20444;-82
2022/07/17 17:38:31;;;;;;;4.68;1.70;;;24.60;53.80;;;;;;8298659;28;20049;-81
2022/07/17 17:42:31;;;;;;;1.90;1.70;;;24.40;54.80;;;;;;8293169;28;20033;-81
2022/07/17 17:46:32;;;;;;;2.58;1.80;;;24.30;55.00;;;;;;8295591;28;20029;-81
2022/07/17 17:50:33;;;;;;;2.33;2.03;;;24.10;58.20;;;;;;8297804;28;20030;-82
2022/07/17 17:54:34;;;;;;;2.28;1.80;;;23.90;57.50;;;;;;8284456;28;20419;-82
2022/07/17 17:58:35;;;;;;;1.98;1.70;;;23.90;57.60;;;;;;8299919;28;20282;-82
2022/07/17 18:02:35;;;;;;;1.88;1.60;;;23.80;56.20;;;;;;8290290;28;20108;-82
2022/07/17 18:06:39;;;;;;;1.90;1.70;;;23.70;55.20;;;;;;8305218;28;20038;-81
2022/07/17 18:10:40;;;;;;;1.60;1.50;;;23.40;56.90;;;;;;8306329;28;20084;-82
2022/07/17 18:14:40;;;;;;;3.55;1.65;;;23.00;57.40;;;;;;8299163;28;20033;-82
2022/07/17 18:18:41;;;;;;;2.38;1.60;;;22.60;60.00;;;;;;8290934;28;20488;-82
2022/07/17 18:22:41;;;;;;;1.55;1.45;;;22.30;61.00;;;;;;8306071;28;20030;-82
2022/07/17 18:26:42;;;;;;;2.33;1.70;;;22.20;60.50;;;;;;8304390;28;20401;-83
2022/07/17 18:30:43;;;;;;;2.50;1.75;;;22.00;62.50;;;;;;8294313;28;20401;-82
2022/07/17 18:34:43;;;;;;;2.20;2.00;;;21.70;62.40;;;;;;8292550;28;20040;-83
2022/07/17 18:38:44;;;;;;;2.35;1.60;;;21.60;61.30;;;;;;8298085;28;20037;-82
2022/07/17 18:42:44;;;;;;;8.25;1.80;;;21.60;61.20;;;;;;8310261;28;20060;-83
2022/07/17 18:46:45;;;;;;;2.92;1.58;;;21.70;60.40;;;;;;8286896;28;20036;-82
2022/07/17 18:50:46;;;;;;;4.68;1.70;;;21.80;59.90;;;;;;8304384;28;20044;-83
2022/07/17 18:54:46;;;;;;;6.35;1.73;;;21.60;60.10;;;;;;8296681;28;20030;-84
2022/07/17 18:58:47;;;;;;;4.93;1.70;;;21.50;61.20;;;;;;8293356;28;20080;-82
2022/07/17 19:02:48;;;;;;;3.97;1.67;;;21.40;61.70;;;;;;8304271;28;20539;-82
2022/07/17 19:06:49;;;;;;;4.70;2.17;;;21.00;65.30;;;;;;8296508;28;20027;-83
2022/07/17 19:10:50;;;;;;;4.10;1.77;;;20.70;67.10;;;;;;8288638;28;20033;-82
2022/07/17 19:14:50;;;;;;;3.25;1.85;;;20.40;68.40;;;;;;8308800;28;20608;-82
2022/07/17 19:18:51;;;;;;;3.83;1.85;;;20.30;70.10;;;;;;8307023;28;20532;-83
2022/07/17 19:22:51;;;;;;;2.67;1.80;;;20.30;68.50;;;;;;8302401;28;20040;-82
2022/07/17 19:26:52;;;;;;;2.22;1.75;;;20.20;69.70;;;;;;8314205;28;20049;-83
2022/07/17 19:30:53;;;;;;;2.53;1.70;;;19.80;75.80;;;;;;8323923;28;20030;-82
2022/07/17 19:34:54;;;;;;;2.45;1.90;;;19.50;76.30;;;;;;8304684;28;20096;-82
2022/07/17 19:38:54;;;;;;;5.60;2.20;;;19.20;77.70;;;;;;8301788;28;20526;-81
2022/07/17 19:42:55;;;;;;;3.22;1.98;;;18.90;76.80;;;;;;8300120;28;20025;-81
2022/07/17 19:46:55;;;;;;;6.20;1.95;;;18.90;78.40;;;;;;8297376;28;20114;-81
2022/07/17 19:50:56;;;;;;;2.65;1.80;;;18.90;78.50;;;;;;8297990;28;20085;-81
2022/07/17 19:54:56;;;;;;;3.45;1.85;;;18.70;80.40;;;;;;8298848;28;20018;-81
2022/07/17 19:58:57;;;;;;;3.17;1.70;;;18.50;81.70;;;;;;8304026;28;20044;-81
2022/07/17 20:02:57;;;;;;;2.38;1.80;;;18.30;84.20;;;;;;8308498;28;20382;-82
2022/07/17 20:06:58;;;;;;;3.53;1.98;;;18.00;85.10;;;;;;8314549;28;20120;-82
2022/07/17 20:10:59;;;;;;;4.85;1.73;;;18.00;85.10;;;;;;8318976;28;20021;-81
2022/07/17 20:14:59;;;;;;;4.25;1.90;;;17.90;87.20;;;;;;8316357;28;20049;-82
2022/07/17 20:19:00;;;;;;;3.92;2.05;;;17.80;88.30;;;;;;8295285;28;20064;-80
2022/07/17 20:23:00;;;;;;;2.25;1.73;;;17.50;89.40;;;;;;8300578;28;20022;-80
2022/07/17 20:27:01;;;;;;;4.68;2.00;;;17.50;90.10;;;;;;8308960;28;20092;-81
2022/07/17 20:31:01;;;;;;;2.90;2.10;;;17.50;90.40;;;;;;8305222;28;20030;-82
2022/07/17 20:35:02;;;;;;;2.67;1.95;;;17.40;91.80;;;;;;8302472;28;20045;-82
2022/07/17 20:39:04;;;;;;;2.45;1.77;;;17.20;92.90;;;;;;8317618;28;20026;-81
2022/07/17 20:43:04;;;;;;;3.80;2.25;;;17.20;93.10;;;;;;8304114;28;20117;-82
2022/07/17 20:47:05;;;;;;;2.53;2.30;;;16.90;94.60;;;;;;8314093;28;20087;-80
2022/07/17 20:51:05;;;;;;;2.33;1.90;;;16.90;94.40;;;;;;8316165;28;20036;-81
2022/07/17 20:55:06;;;;;;;4.00;1.80;;;16.60;94.90;;;;;;8306891;28;20026;-82
2022/07/17 20:59:07;;;;;;;4.20;2.15;;;16.30;96.00;;;;;;8307468;28;20033;-81
2022/07/17 21:03:07;;;;;;;4.10;2.00;;;16.20;97.40;;;;;;8299350;28;20025;-82